sensor_id;sensor_type;location;lat;lon;timestamp;P1;durP1;ratioP1;P2;durP2;ratioP2
6007;SDS011;3032;49.484;11.112;2023-06-22T00:00:51;9.82;;;8.82;;
6007;SDS011;3032;49.484;11.112;2023-06-22T00:03:20;10.95;;;9.85;;
6007;SDS011;3032;49.484;11.112;2023-06-22T00:05:47;10.98;;;9.75;;
6007;SDS011;3032;49.484;11.112;2023-06-22T00:08:13;11.55;;;10.45;;
6007;SDS011;3032;49.484;11.112;2023-06-22T00:10:40;12.15;;;9.60;;
6007;SDS011;3032;49.484;11.112;2023-06-22T00:13:06;12.77;;;10.13;;
6007;SDS011;3032;49.484;11.112;2023-06-22T00:15:33;11.05;;;10.05;;
6007;SDS011;3032;49.484;11.112;2023-06-22T00:17:59;14.80;;;10.55;;
6007;SDS011;3032;49.484;11.112;2023-06-22T00:20:25;10.70;;;9.60;;
6007;SDS011;3032;49.484;11.112;2023-06-22T00:22:53;10.85;;;9.75;;
6007;SDS011;3032;49.484;11.112;2023-06-22T00:25:19;11.25;;;10.15;;
6007;SDS011;3032;49.484;11.112;2023-06-22T00:27:44;11.00;;;9.97;;
6007;SDS011;3032;49.484;11.112;2023-06-22T00:30:10;13.83;;;10.00;;
6007;SDS011;3032;49.484;11.112;2023-06-22T00:32:36;11.75;;;10.20;;
6007;SDS011;3032;49.484;11.112;2023-06-22T00:35:01;15.57;;;10.73;;
6007;SDS011;3032;49.484;11.112;2023-06-22T00:37:27;15.53;;;10.50;;
6007;SDS011;3032;49.484;11.112;2023-06-22T00:39:55;10.70;;;9.80;;
6007;SDS011;3032;49.484;11.112;2023-06-22T00:42:21;12.85;;;10.20;;
6007;SDS011;3032;49.484;11.112;2023-06-22T00:44:46;10.50;;;9.50;;
6007;SDS011;3032;49.484;11.112;2023-06-22T00:47:15;11.10;;;9.90;;
6007;SDS011;3032;49.484;11.112;2023-06-22T00:49:42;10.45;;;9.25;;
6007;SDS011;3032;49.484;11.112;2023-06-22T00:52:08;12.98;;;10.15;;
6007;SDS011;3032;49.484;11.112;2023-06-22T00:54:38;10.98;;;9.98;;
6007;SDS011;3032;49.484;11.112;2023-06-22T00:57:05;11.77;;;10.68;;
6007;SDS011;3032;49.484;11.112;2023-06-22T00:59:35;13.32;;;10.55;;
6007;SDS011;3032;49.484;11.112;2023-06-22T01:02:01;11.67;;;9.60;;
6007;SDS011;3032;49.484;11.112;2023-06-22T01:04:34;12.40;;;10.60;;
6007;SDS011;3032;49.484;11.112;2023-06-22T01:10:07;12.35;;;11.15;;
6007;SDS011;3032;49.484;11.112;2023-06-22T01:13:01;12.10;;;10.75;;
6007;SDS011;3032;49.484;11.112;2023-06-22T01:15:33;15.02;;;10.98;;
6007;SDS011;3032;49.484;11.112;2023-06-22T01:18:08;11.70;;;10.55;;
6007;SDS011;3032;49.484;11.112;2023-06-22T01:20:35;11.57;;;9.73;;
6007;SDS011;3032;49.484;11.112;2023-06-22T01:28:49;11.80;;;9.25;;
6007;SDS011;3032;49.484;11.112;2023-06-22T01:31:18;12.00;;;10.18;;
6007;SDS011;3032;49.484;11.112;2023-06-22T01:34:04;11.68;;;10.38;;
6007;SDS011;3032;49.484;11.112;2023-06-22T01:36:32;12.23;;;10.52;;
6007;SDS011;3032;49.484;11.112;2023-06-22T01:38:59;13.40;;;12.10;;
6007;SDS011;3032;49.484;11.112;2023-06-22T01:41:27;12.93;;;10.18;;
6007;SDS011;3032;49.484;11.112;2023-06-22T01:43:54;12.45;;;10.80;;
6007;SDS011;3032;49.484;11.112;2023-06-22T01:46:21;14.98;;;10.32;;
6007;SDS011;3032;49.484;11.112;2023-06-22T01:48:47;12.68;;;11.23;;
6007;SDS011;3032;49.484;11.112;2023-06-22T01:51:13;11.80;;;9.47;;
6007;SDS011;3032;49.484;11.112;2023-06-22T01:53:39;15.30;;;10.48;;
6007;SDS011;3032;49.484;11.112;2023-06-22T01:56:05;11.10;;;9.90;;
6007;SDS011;3032;49.484;11.112;2023-06-22T01:58:31;12.97;;;10.87;;
6007;SDS011;3032;49.484;11.112;2023-06-22T02:01:00;13.73;;;10.68;;
6007;SDS011;3032;49.484;11.112;2023-06-22T02:03:36;11.65;;;10.55;;
6007;SDS011;3032;49.484;11.112;2023-06-22T02:06:06;11.38;;;10.18;;
6007;SDS011;3032;49.484;11.112;2023-06-22T02:08:47;10.82;;;9.60;;
6007;SDS011;3032;49.484;11.112;2023-06-22T02:11:16;11.75;;;10.55;;
6007;SDS011;3032;49.484;11.112;2023-06-22T02:13:44;12.65;;;11.35;;
6007;SDS011;3032;49.484;11.112;2023-06-22T02:16:11;12.88;;;11.10;;
6007;SDS011;3032;49.484;11.112;2023-06-22T02:18:37;13.40;;;11.63;;
6007;SDS011;3032;49.484;11.112;2023-06-22T02:21:05;11.93;;;10.65;;
6007;SDS011;3032;49.484;11.112;2023-06-22T02:23:31;12.63;;;10.77;;
6007;SDS011;3032;49.484;11.112;2023-06-22T02:25:59;12.85;;;11.35;;
6007;SDS011;3032;49.484;11.112;2023-06-22T02:28:25;12.77;;;11.48;;
6007;SDS011;3032;49.484;11.112;2023-06-22T02:30:51;12.70;;;11.40;;
6007;SDS011;3032;49.484;11.112;2023-06-22T02:33:16;12.80;;;10.93;;
6007;SDS011;3032;49.484;11.112;2023-06-22T02:35:42;12.47;;;11.20;;
6007;SDS011;3032;49.484;11.112;2023-06-22T02:38:10;13.82;;;10.52;;
6007;SDS011;3032;49.484;11.112;2023-06-22T02:40:36;10.50;;;9.50;;
6007;SDS011;3032;49.484;11.112;2023-06-22T02:43:02;11.40;;;9.80;;
6007;SDS011;3032;49.484;11.112;2023-06-22T02:45:28;11.02;;;10.10;;
6007;SDS011;3032;49.484;11.112;2023-06-22T02:47:54;14.43;;;11.75;;
6007;SDS011;3032;49.484;11.112;2023-06-22T02:50:20;13.68;;;10.43;;
6007;SDS011;3032;49.484;11.112;2023-06-22T02:52:46;12.00;;;10.90;;
6007;SDS011;3032;49.484;11.112;2023-06-22T02:55:11;13.03;;;11.20;;
6007;SDS011;3032;49.484;11.112;2023-06-22T02:57:37;17.10;;;11.20;;
6007;SDS011;3032;49.484;11.112;2023-06-22T03:00:08;14.38;;;11.50;;
6007;SDS011;3032;49.484;11.112;2023-06-22T03:02:41;15.65;;;10.55;;
6007;SDS011;3032;49.484;11.112;2023-06-22T03:05:12;12.15;;;10.95;;
6007;SDS011;3032;49.484;11.112;2023-06-22T03:07:42;12.35;;;11.18;;
6007;SDS011;3032;49.484;11.112;2023-06-22T03:10:09;11.15;;;10.05;;
6007;SDS011;3032;49.484;11.112;2023-06-22T03:12:35;12.55;;;11.25;;
6007;SDS011;3032;49.484;11.112;2023-06-22T03:15:03;11.50;;;10.30;;
6007;SDS011;3032;49.484;11.112;2023-06-22T03:17:33;12.05;;;10.75;;
6007;SDS011;3032;49.484;11.112;2023-06-22T03:20:00;12.85;;;10.63;;
6007;SDS011;3032;49.484;11.112;2023-06-22T03:22:26;11.77;;;10.57;;
6007;SDS011;3032;49.484;11.112;2023-06-22T03:24:51;13.03;;;11.07;;
6007;SDS011;3032;49.484;11.112;2023-06-22T03:27:17;12.57;;;11.33;;
6007;SDS011;3032;49.484;11.112;2023-06-22T03:29:43;11.68;;;10.57;;
6007;SDS011;3032;49.484;11.112;2023-06-22T03:32:09;10.95;;;9.95;;
6007;SDS011;3032;49.484;11.112;2023-06-22T03:34:35;13.00;;;11.63;;
6007;SDS011;3032;49.484;11.112;2023-06-22T03:37:03;14.05;;;10.65;;
6007;SDS011;3032;49.484;11.112;2023-06-22T03:39:29;17.73;;;13.20;;
6007;SDS011;3032;49.484;11.112;2023-06-22T03:41:55;13.07;;;11.70;;
6007;SDS011;3032;49.484;11.112;2023-06-22T03:44:20;13.43;;;11.77;;
6007;SDS011;3032;49.484;11.112;2023-06-22T03:46:46;12.67;;;11.40;;
6007;SDS011;3032;49.484;11.112;2023-06-22T03:49:11;14.10;;;12.70;;
6007;SDS011;3032;49.484;11.112;2023-06-22T03:51:37;12.40;;;11.10;;
6007;SDS011;3032;49.484;11.112;2023-06-22T03:54:02;12.43;;;11.03;;
6007;SDS011;3032;49.484;11.112;2023-06-22T03:56:28;11.10;;;10.00;;
6007;SDS011;3032;49.484;11.112;2023-06-22T03:58:54;12.47;;;10.73;;
6007;SDS011;3032;49.484;11.112;2023-06-22T04:01:19;11.43;;;10.23;;
6007;SDS011;3032;49.484;11.112;2023-06-22T04:03:45;12.80;;;10.47;;
6007;SDS011;3032;49.484;11.112;2023-06-22T04:06:13;11.82;;;10.65;;
6007;SDS011;3032;49.484;11.112;2023-06-22T04:08:38;10.80;;;9.77;;
6007;SDS011;3032;49.484;11.112;2023-06-22T04:11:04;11.67;;;10.47;;
6007;SDS011;3032;49.484;11.112;2023-06-22T04:13:30;11.35;;;10.30;;
6007;SDS011;3032;49.484;11.112;2023-06-22T04:15:55;10.87;;;9.77;;
6007;SDS011;3032;49.484;11.112;2023-06-22T04:18:21;10.93;;;9.83;;
6007;SDS011;3032;49.484;11.112;2023-06-22T04:20:46;12.30;;;10.90;;
6007;SDS011;3032;49.484;11.112;2023-06-22T04:23:12;14.57;;;10.43;;
6007;SDS011;3032;49.484;11.112;2023-06-22T04:25:38;11.83;;;10.70;;
6007;SDS011;3032;49.484;11.112;2023-06-22T04:28:04;10.07;;;9.07;;
6007;SDS011;3032;49.484;11.112;2023-06-22T04:30:30;10.83;;;9.73;;
6007;SDS011;3032;49.484;11.112;2023-06-22T04:32:57;11.07;;;9.93;;
6007;SDS011;3032;49.484;11.112;2023-06-22T04:35:23;12.03;;;10.83;;
6007;SDS011;3032;49.484;11.112;2023-06-22T04:37:49;13.18;;;10.88;;
6007;SDS011;3032;49.484;11.112;2023-06-22T04:40:19;10.10;;;9.00;;
6007;SDS011;3032;49.484;11.112;2023-06-22T04:42:48;17.15;;;9.93;;
6007;SDS011;3032;49.484;11.112;2023-06-22T04:45:18;14.85;;;9.60;;
6007;SDS011;3032;49.484;11.112;2023-06-22T04:47:43;12.00;;;9.37;;
6007;SDS011;3032;49.484;11.112;2023-06-22T04:50:11;10.18;;;9.15;;
6007;SDS011;3032;49.484;11.112;2023-06-22T04:52:37;10.98;;;9.98;;
6007;SDS011;3032;49.484;11.112;2023-06-22T04:55:03;9.80;;;8.80;;
6007;SDS011;3032;49.484;11.112;2023-06-22T04:57:29;12.05;;;10.15;;
6007;SDS011;3032;49.484;11.112;2023-06-22T04:59:58;10.13;;;9.00;;
6007;SDS011;3032;49.484;11.112;2023-06-22T05:02:36;10.15;;;9.15;;
6007;SDS011;3032;49.484;11.112;2023-06-22T05:05:02;9.80;;;8.75;;
6007;SDS011;3032;49.484;11.112;2023-06-22T05:07:31;9.82;;;8.77;;
6007;SDS011;3032;49.484;11.112;2023-06-22T05:10:04;10.55;;;9.35;;
6007;SDS011;3032;49.484;11.112;2023-06-22T05:12:30;9.50;;;8.50;;
6007;SDS011;3032;49.484;11.112;2023-06-22T05:14:56;9.67;;;8.50;;
6007;SDS011;3032;49.484;11.112;2023-06-22T05:17:22;12.40;;;9.60;;
6007;SDS011;3032;49.484;11.112;2023-06-22T05:19:47;10.47;;;9.43;;
6007;SDS011;3032;49.484;11.112;2023-06-22T05:22:16;10.23;;;9.13;;
6007;SDS011;3032;49.484;11.112;2023-06-22T05:24:42;9.50;;;8.50;;
6007;SDS011;3032;49.484;11.112;2023-06-22T05:27:08;10.50;;;8.45;;
6007;SDS011;3032;49.484;11.112;2023-06-22T05:29:34;9.80;;;8.68;;
6007;SDS011;3032;49.484;11.112;2023-06-22T05:32:00;9.80;;;8.65;;
6007;SDS011;3032;49.484;11.112;2023-06-22T05:34:26;9.57;;;8.20;;
6007;SDS011;3032;49.484;11.112;2023-06-22T05:36:51;10.07;;;9.07;;
6007;SDS011;3032;49.484;11.112;2023-06-22T05:39:17;10.10;;;9.10;;
6007;SDS011;3032;49.484;11.112;2023-06-22T05:41:43;9.73;;;8.73;;
6007;SDS011;3032;49.484;11.112;2023-06-22T05:44:10;9.40;;;8.60;;
6007;SDS011;3032;49.484;11.112;2023-06-22T05:46:35;10.17;;;9.17;;
6007;SDS011;3032;49.484;11.112;2023-06-22T05:49:01;9.13;;;8.23;;
6007;SDS011;3032;49.484;11.112;2023-06-22T05:51:26;8.07;;;7.30;;
6007;SDS011;3032;49.484;11.112;2023-06-22T05:53:52;9.73;;;8.73;;
6007;SDS011;3032;49.484;11.112;2023-06-22T05:56:17;9.43;;;8.53;;
6007;SDS011;3032;49.484;11.112;2023-06-22T05:58:43;9.23;;;8.43;;
6007;SDS011;3032;49.484;11.112;2023-06-22T06:01:09;10.30;;;9.30;;
6007;SDS011;3032;49.484;11.112;2023-06-22T06:03:34;10.00;;;8.50;;
6007;SDS011;3032;49.484;11.112;2023-06-22T06:06:06;10.13;;;9.13;;
6007;SDS011;3032;49.484;11.112;2023-06-22T06:08:32;9.25;;;8.43;;
6007;SDS011;3032;49.484;11.112;2023-06-22T06:10:58;11.57;;;8.33;;
6007;SDS011;3032;49.484;11.112;2023-06-22T06:13:23;8.60;;;7.80;;
6007;SDS011;3032;49.484;11.112;2023-06-22T06:15:49;8.57;;;7.57;;
6007;SDS011;3032;49.484;11.112;2023-06-22T06:18:16;9.10;;;8.40;;
6007;SDS011;3032;49.484;11.112;2023-06-22T06:20:42;9.90;;;8.60;;
6007;SDS011;3032;49.484;11.112;2023-06-22T06:23:08;9.40;;;8.33;;
6007;SDS011;3032;49.484;11.112;2023-06-22T06:25:33;9.10;;;8.37;;
6007;SDS011;3032;49.484;11.112;2023-06-22T06:27:59;10.37;;;8.40;;
6007;SDS011;3032;49.484;11.112;2023-06-22T06:30:24;8.90;;;8.10;;
6007;SDS011;3032;49.484;11.112;2023-06-22T06:32:50;8.33;;;7.57;;
6007;SDS011;3032;49.484;11.112;2023-06-22T06:35:15;10.47;;;7.30;;
6007;SDS011;3032;49.484;11.112;2023-06-22T06:37:43;12.95;;;7.75;;
6007;SDS011;3032;49.484;11.112;2023-06-22T06:40:10;11.68;;;8.30;;
6007;SDS011;3032;49.484;11.112;2023-06-22T06:42:40;8.15;;;7.35;;
6007;SDS011;3032;49.484;11.112;2023-06-22T06:45:16;9.02;;;8.20;;
6007;SDS011;3032;49.484;11.112;2023-06-22T06:47:43;7.60;;;7.00;;
6007;SDS011;3032;49.484;11.112;2023-06-22T06:50:09;10.47;;;7.07;;
6007;SDS011;3032;49.484;11.112;2023-06-22T06:52:35;7.38;;;6.80;;
6007;SDS011;3032;49.484;11.112;2023-06-22T06:55:01;9.60;;;8.00;;
6007;SDS011;3032;49.484;11.112;2023-06-22T06:57:29;8.25;;;7.50;;
6007;SDS011;3032;49.484;11.112;2023-06-22T06:59:58;7.17;;;6.67;;
6007;SDS011;3032;49.484;11.112;2023-06-22T07:02:24;7.93;;;7.15;;
6007;SDS011;3032;49.484;11.112;2023-06-22T07:04:51;7.57;;;6.97;;
6007;SDS011;3032;49.484;11.112;2023-06-22T07:07:16;12.00;;;7.30;;
6007;SDS011;3032;49.484;11.112;2023-06-22T07:09:42;8.50;;;7.70;;
6007;SDS011;3032;49.484;11.112;2023-06-22T07:12:07;8.60;;;7.17;;
6007;SDS011;3032;49.484;11.112;2023-06-22T07:14:33;8.17;;;6.60;;
6007;SDS011;3032;49.484;11.112;2023-06-22T07:16:58;6.63;;;6.13;;
6007;SDS011;3032;49.484;11.112;2023-06-22T07:19:25;7.30;;;6.60;;
6007;SDS011;3032;49.484;11.112;2023-06-22T07:21:54;7.43;;;6.82;;
6007;SDS011;3032;49.484;11.112;2023-06-22T07:24:20;8.97;;;6.73;;
6007;SDS011;3032;49.484;11.112;2023-06-22T07:26:47;7.03;;;6.47;;
6007;SDS011;3032;49.484;11.112;2023-06-22T07:29:14;7.80;;;7.03;;
6007;SDS011;3032;49.484;11.112;2023-06-22T07:31:43;6.82;;;6.20;;
6007;SDS011;3032;49.484;11.112;2023-06-22T07:34:08;6.93;;;6.23;;
6007;SDS011;3032;49.484;11.112;2023-06-22T07:36:34;6.80;;;6.20;;
6007;SDS011;3032;49.484;11.112;2023-06-22T07:39:00;5.85;;;5.45;;
6007;SDS011;3032;49.484;11.112;2023-06-22T07:41:29;6.60;;;6.00;;
6007;SDS011;3032;49.484;11.112;2023-06-22T07:43:55;6.22;;;5.75;;
6007;SDS011;3032;49.484;11.112;2023-06-22T07:46:21;7.67;;;6.97;;
6007;SDS011;3032;49.484;11.112;2023-06-22T07:48:47;6.65;;;5.97;;
6007;SDS011;3032;49.484;11.112;2023-06-22T07:51:12;7.00;;;6.00;;
6007;SDS011;3032;49.484;11.112;2023-06-22T07:53:39;6.70;;;6.05;;
6007;SDS011;3032;49.484;11.112;2023-06-22T07:56:11;7.45;;;5.80;;
6007;SDS011;3032;49.484;11.112;2023-06-22T07:58:37;8.77;;;6.28;;
6007;SDS011;3032;49.484;11.112;2023-06-22T08:01:03;6.40;;;5.93;;
6007;SDS011;3032;49.484;11.112;2023-06-22T08:03:29;7.30;;;6.00;;
6007;SDS011;3032;49.484;11.112;2023-06-22T08:05:55;5.53;;;5.13;;
6007;SDS011;3032;49.484;11.112;2023-06-22T08:08:21;5.33;;;4.90;;
6007;SDS011;3032;49.484;11.112;2023-06-22T08:10:46;5.87;;;5.27;;
6007;SDS011;3032;49.484;11.112;2023-06-22T08:13:12;5.93;;;4.77;;
6007;SDS011;3032;49.484;11.112;2023-06-22T08:15:37;5.83;;;5.33;;
6007;SDS011;3032;49.484;11.112;2023-06-22T08:18:03;5.67;;;5.17;;
6007;SDS011;3032;49.484;11.112;2023-06-22T08:20:28;5.53;;;4.70;;
6007;SDS011;3032;49.484;11.112;2023-06-22T08:22:55;5.13;;;4.73;;
6007;SDS011;3032;49.484;11.112;2023-06-22T08:25:21;4.90;;;4.50;;
6007;SDS011;3032;49.484;11.112;2023-06-22T08:27:46;5.30;;;4.83;;
6007;SDS011;3032;49.484;11.112;2023-06-22T08:30:13;5.63;;;5.13;;
6007;SDS011;3032;49.484;11.112;2023-06-22T08:32:39;6.38;;;4.40;;
6007;SDS011;3032;49.484;11.112;2023-06-22T08:35:05;5.10;;;4.70;;
6007;SDS011;3032;49.484;11.112;2023-06-22T08:37:33;5.10;;;4.70;;
6007;SDS011;3032;49.484;11.112;2023-06-22T08:40:01;5.33;;;4.83;;
6007;SDS011;3032;49.484;11.112;2023-06-22T08:42:35;4.87;;;4.57;;
6007;SDS011;3032;49.484;11.112;2023-06-22T08:45:01;5.00;;;4.60;;
6007;SDS011;3032;49.484;11.112;2023-06-22T08:47:27;5.32;;;4.82;;
6007;SDS011;3032;49.484;11.112;2023-06-22T08:49:53;5.10;;;4.77;;
6007;SDS011;3032;49.484;11.112;2023-06-22T08:52:19;5.00;;;4.60;;
6007;SDS011;3032;49.484;11.112;2023-06-22T08:54:45;5.82;;;4.60;;
6007;SDS011;3032;49.484;11.112;2023-06-22T08:57:11;5.22;;;4.88;;
6007;SDS011;3032;49.484;11.112;2023-06-22T08:59:37;8.90;;;4.90;;
6007;SDS011;3032;49.484;11.112;2023-06-22T09:02:02;6.47;;;4.80;;
6007;SDS011;3032;49.484;11.112;2023-06-22T09:04:28;5.70;;;4.70;;
6007;SDS011;3032;49.484;11.112;2023-06-22T09:06:54;4.60;;;4.20;;
6007;SDS011;3032;49.484;11.112;2023-06-22T09:09:20;4.80;;;4.50;;
6007;SDS011;3032;49.484;11.112;2023-06-22T09:11:46;7.00;;;4.70;;
6007;SDS011;3032;49.484;11.112;2023-06-22T09:14:12;5.50;;;5.00;;
6007;SDS011;3032;49.484;11.112;2023-06-22T09:16:38;8.07;;;4.70;;
6007;SDS011;3032;49.484;11.112;2023-06-22T09:19:03;6.43;;;4.63;;
6007;SDS011;3032;49.484;11.112;2023-06-22T09:21:29;10.77;;;5.00;;
6007;SDS011;3032;49.484;11.112;2023-06-22T09:23:55;4.57;;;4.13;;
6007;SDS011;3032;49.484;11.112;2023-06-22T09:26:20;7.50;;;4.87;;
6007;SDS011;3032;49.484;11.112;2023-06-22T09:28:48;5.00;;;4.45;;
6007;SDS011;3032;49.484;11.112;2023-06-22T09:31:14;4.27;;;3.97;;
6007;SDS011;3032;49.484;11.112;2023-06-22T09:33:41;5.10;;;4.28;;
6007;SDS011;3032;49.484;11.112;2023-06-22T09:36:07;12.23;;;4.30;;
6007;SDS011;3032;49.484;11.112;2023-06-22T09:38:36;9.73;;;5.10;;
6007;SDS011;3032;49.484;11.112;2023-06-22T09:41:04;4.47;;;4.07;;
6007;SDS011;3032;49.484;11.112;2023-06-22T09:43:31;7.70;;;3.87;;
6007;SDS011;3032;49.484;11.112;2023-06-22T09:45:59;5.28;;;4.60;;
6007;SDS011;3032;49.484;11.112;2023-06-22T09:48:26;4.90;;;4.50;;
6007;SDS011;3032;49.484;11.112;2023-06-22T09:50:52;7.00;;;4.30;;
6007;SDS011;3032;49.484;11.112;2023-06-22T09:53:17;8.20;;;5.00;;
6007;SDS011;3032;49.484;11.112;2023-06-22T09:55:43;6.63;;;4.80;;
6007;SDS011;3032;49.484;11.112;2023-06-22T09:58:08;5.57;;;4.27;;
6007;SDS011;3032;49.484;11.112;2023-06-22T10:00:35;8.38;;;4.25;;
6007;SDS011;3032;49.484;11.112;2023-06-22T10:03:00;8.90;;;4.97;;
6007;SDS011;3032;49.484;11.112;2023-06-22T10:05:26;8.27;;;4.50;;
6007;SDS011;3032;49.484;11.112;2023-06-22T10:07:51;5.67;;;4.70;;
6007;SDS011;3032;49.484;11.112;2023-06-22T10:10:17;5.83;;;4.20;;
6007;SDS011;3032;49.484;11.112;2023-06-22T10:12:45;5.50;;;5.00;;
6007;SDS011;3032;49.484;11.112;2023-06-22T10:15:12;9.40;;;4.25;;
6007;SDS011;3032;49.484;11.112;2023-06-22T10:17:40;5.43;;;4.43;;
6007;SDS011;3032;49.484;11.112;2023-06-22T10:20:16;4.95;;;4.40;;
6007;SDS011;3032;49.484;11.112;2023-06-22T10:22:43;5.13;;;4.07;;
6007;SDS011;3032;49.484;11.112;2023-06-22T10:25:11;6.53;;;4.55;;
6007;SDS011;3032;49.484;11.112;2023-06-22T10:27:37;11.18;;;5.20;;
6007;SDS011;3032;49.484;11.112;2023-06-22T10:30:10;6.10;;;4.70;;
6007;SDS011;3032;49.484;11.112;2023-06-22T10:32:40;6.50;;;4.60;;
6007;SDS011;3032;49.484;11.112;2023-06-22T10:35:07;7.10;;;4.50;;
6007;SDS011;3032;49.484;11.112;2023-06-22T10:37:33;10.90;;;4.40;;
6007;SDS011;3032;49.484;11.112;2023-06-22T10:39:59;5.60;;;4.80;;
6007;SDS011;3032;49.484;11.112;2023-06-22T10:42:24;6.47;;;4.47;;
6007;SDS011;3032;49.484;11.112;2023-06-22T10:44:50;5.83;;;4.90;;
6007;SDS011;3032;49.484;11.112;2023-06-22T10:47:15;5.33;;;4.63;;
6007;SDS011;3032;49.484;11.112;2023-06-22T10:49:41;5.10;;;4.60;;
6007;SDS011;3032;49.484;11.112;2023-06-22T10:52:07;6.30;;;4.20;;
6007;SDS011;3032;49.484;11.112;2023-06-22T10:54:34;10.00;;;3.97;;
6007;SDS011;3032;49.484;11.112;2023-06-22T10:57:00;6.73;;;4.87;;
6007;SDS011;3032;49.484;11.112;2023-06-22T10:59:26;6.60;;;4.30;;
6007;SDS011;3032;49.484;11.112;2023-06-22T11:01:53;9.27;;;4.47;;
6007;SDS011;3032;49.484;11.112;2023-06-22T11:04:20;7.07;;;4.83;;
6007;SDS011;3032;49.484;11.112;2023-06-22T11:06:45;6.33;;;3.80;;
6007;SDS011;3032;49.484;11.112;2023-06-22T11:09:12;8.23;;;4.63;;
6007;SDS011;3032;49.484;11.112;2023-06-22T11:11:38;5.17;;;4.20;;
6007;SDS011;3032;49.484;11.112;2023-06-22T11:14:03;9.40;;;4.60;;
6007;SDS011;3032;49.484;11.112;2023-06-22T11:16:29;6.47;;;4.13;;
6007;SDS011;3032;49.484;11.112;2023-06-22T11:18:54;7.90;;;4.30;;
6007;SDS011;3032;49.484;11.112;2023-06-22T11:21:20;6.73;;;4.33;;
6007;SDS011;3032;49.484;11.112;2023-06-22T11:23:45;6.90;;;4.13;;
6007;SDS011;3032;49.484;11.112;2023-06-22T11:26:11;5.00;;;4.50;;
6007;SDS011;3032;49.484;11.112;2023-06-22T11:28:36;9.10;;;5.27;;
6007;SDS011;3032;49.484;11.112;2023-06-22T11:31:02;8.63;;;4.73;;
6007;SDS011;3032;49.484;11.112;2023-06-22T11:33:28;10.83;;;4.90;;
6007;SDS011;3032;49.484;11.112;2023-06-22T11:35:54;7.43;;;4.40;;
6007;SDS011;3032;49.484;11.112;2023-06-22T11:38:21;5.17;;;4.50;;
6007;SDS011;3032;49.484;11.112;2023-06-22T11:40:46;8.03;;;4.30;;
6007;SDS011;3032;49.484;11.112;2023-06-22T11:43:12;9.10;;;4.67;;
6007;SDS011;3032;49.484;11.112;2023-06-22T11:45:39;10.03;;;5.00;;
6007;SDS011;3032;49.484;11.112;2023-06-22T11:48:05;14.57;;;5.30;;
6007;SDS011;3032;49.484;11.112;2023-06-22T11:50:31;7.67;;;4.70;;
6007;SDS011;3032;49.484;11.112;2023-06-22T11:53:00;5.17;;;4.60;;
6007;SDS011;3032;49.484;11.112;2023-06-22T11:55:29;6.13;;;4.43;;
6007;SDS011;3032;49.484;11.112;2023-06-22T11:57:55;5.87;;;4.60;;
6007;SDS011;3032;49.484;11.112;2023-06-22T12:00:23;5.80;;;4.57;;
6007;SDS011;3032;49.484;11.112;2023-06-22T12:02:50;7.30;;;4.47;;
6007;SDS011;3032;49.484;11.112;2023-06-22T12:05:19;6.33;;;4.50;;
6007;SDS011;3032;49.484;11.112;2023-06-22T12:07:49;7.60;;;4.43;;
6007;SDS011;3032;49.484;11.112;2023-06-22T12:10:14;8.00;;;5.10;;
6007;SDS011;3032;49.484;11.112;2023-06-22T12:12:41;5.67;;;4.10;;
6007;SDS011;3032;49.484;11.112;2023-06-22T12:15:06;7.83;;;4.93;;
6007;SDS011;3032;49.484;11.112;2023-06-22T12:17:34;5.23;;;4.73;;
6007;SDS011;3032;49.484;11.112;2023-06-22T12:19:59;6.40;;;4.60;;
6007;SDS011;3032;49.484;11.112;2023-06-22T12:22:25;12.17;;;4.67;;
6007;SDS011;3032;49.484;11.112;2023-06-22T12:24:50;7.07;;;4.60;;
6007;SDS011;3032;49.484;11.112;2023-06-22T12:27:16;8.53;;;4.50;;
6007;SDS011;3032;49.484;11.112;2023-06-22T12:29:43;7.00;;;4.60;;
6007;SDS011;3032;49.484;11.112;2023-06-22T12:32:10;6.87;;;4.57;;
6007;SDS011;3032;49.484;11.112;2023-06-22T12:34:38;12.53;;;5.37;;
6007;SDS011;3032;49.484;11.112;2023-06-22T12:37:04;12.43;;;5.27;;
6007;SDS011;3032;49.484;11.112;2023-06-22T12:39:30;7.00;;;4.70;;
6007;SDS011;3032;49.484;11.112;2023-06-22T12:41:56;7.30;;;5.03;;
6007;SDS011;3032;49.484;11.112;2023-06-22T12:44:22;8.07;;;4.60;;
6007;SDS011;3032;49.484;11.112;2023-06-22T12:46:47;7.80;;;4.57;;
6007;SDS011;3032;49.484;11.112;2023-06-22T12:49:13;11.03;;;5.60;;
6007;SDS011;3032;49.484;11.112;2023-06-22T12:51:39;5.70;;;4.20;;
6007;SDS011;3032;49.484;11.112;2023-06-22T12:54:07;8.33;;;4.50;;
6007;SDS011;3032;49.484;11.112;2023-06-22T12:56:32;10.00;;;4.83;;
6007;SDS011;3032;49.484;11.112;2023-06-22T12:58:58;8.27;;;4.60;;
6007;SDS011;3032;49.484;11.112;2023-06-22T13:01:26;9.63;;;4.87;;
6007;SDS011;3032;49.484;11.112;2023-06-22T13:03:52;13.90;;;4.87;;
6007;SDS011;3032;49.484;11.112;2023-06-22T13:06:18;8.50;;;5.13;;
6007;SDS011;3032;49.484;11.112;2023-06-22T13:08:44;8.87;;;5.40;;
6007;SDS011;3032;49.484;11.112;2023-06-22T13:11:09;9.60;;;4.87;;
6007;SDS011;3032;49.484;11.112;2023-06-22T13:13:35;8.93;;;4.50;;
6007;SDS011;3032;49.484;11.112;2023-06-22T13:16:01;8.77;;;5.10;;
6007;SDS011;3032;49.484;11.112;2023-06-22T13:18:26;6.27;;;4.77;;
6007;SDS011;3032;49.484;11.112;2023-06-22T13:20:52;13.20;;;5.80;;
6007;SDS011;3032;49.484;11.112;2023-06-22T13:23:19;6.82;;;4.70;;
6007;SDS011;3032;49.484;11.112;2023-06-22T13:25:46;8.85;;;5.65;;
6007;SDS011;3032;49.484;11.112;2023-06-22T13:28:11;11.70;;;5.70;;
6007;SDS011;3032;49.484;11.112;2023-06-22T13:30:38;8.75;;;4.72;;
6007;SDS011;3032;49.484;11.112;2023-06-22T13:33:05;7.77;;;5.33;;
6007;SDS011;3032;49.484;11.112;2023-06-22T13:35:30;13.03;;;5.50;;
6007;SDS011;3032;49.484;11.112;2023-06-22T13:37:56;12.13;;;5.50;;
6007;SDS011;3032;49.484;11.112;2023-06-22T13:40:22;10.50;;;4.93;;
6007;SDS011;3032;49.484;11.112;2023-06-22T13:42:47;9.40;;;5.67;;
6007;SDS011;3032;49.484;11.112;2023-06-22T13:45:13;7.63;;;5.00;;
6007;SDS011;3032;49.484;11.112;2023-06-22T13:47:41;10.13;;;5.05;;
6007;SDS011;3032;49.484;11.112;2023-06-22T13:50:07;14.27;;;5.27;;
6007;SDS011;3032;49.484;11.112;2023-06-22T13:52:33;8.10;;;5.20;;
6007;SDS011;3032;49.484;11.112;2023-06-22T13:54:58;9.80;;;5.27;;
6007;SDS011;3032;49.484;11.112;2023-06-22T13:57:24;8.70;;;5.30;;
6007;SDS011;3032;49.484;11.112;2023-06-22T13:59:50;11.63;;;5.87;;
6007;SDS011;3032;49.484;11.112;2023-06-22T14:02:15;8.77;;;5.60;;
6007;SDS011;3032;49.484;11.112;2023-06-22T14:04:41;15.03;;;5.13;;
6007;SDS011;3032;49.484;11.112;2023-06-22T14:07:06;13.50;;;5.70;;
6007;SDS011;3032;49.484;11.112;2023-06-22T14:09:32;10.07;;;5.10;;
6007;SDS011;3032;49.484;11.112;2023-06-22T14:11:58;10.07;;;5.20;;
6007;SDS011;3032;49.484;11.112;2023-06-22T14:14:28;10.95;;;5.22;;
6007;SDS011;3032;49.484;11.112;2023-06-22T14:16:54;8.93;;;5.70;;
6007;SDS011;3032;49.484;11.112;2023-06-22T14:19:20;8.63;;;4.93;;
6007;SDS011;3032;49.484;11.112;2023-06-22T14:21:46;13.40;;;5.90;;
6007;SDS011;3032;49.484;11.112;2023-06-22T14:24:11;11.00;;;5.07;;
6007;SDS011;3032;49.484;11.112;2023-06-22T14:26:37;10.63;;;4.83;;
6007;SDS011;3032;49.484;11.112;2023-06-22T14:29:02;7.40;;;5.20;;
6007;SDS011;3032;49.484;11.112;2023-06-22T14:31:28;7.63;;;5.03;;
6007;SDS011;3032;49.484;11.112;2023-06-22T14:33:54;6.60;;;5.03;;
6007;SDS011;3032;49.484;11.112;2023-06-22T14:36:20;9.30;;;5.50;;
6007;SDS011;3032;49.484;11.112;2023-06-22T14:38:45;7.27;;;4.90;;
6007;SDS011;3032;49.484;11.112;2023-06-22T14:41:11;8.63;;;5.33;;
6007;SDS011;3032;49.484;11.112;2023-06-22T14:43:37;6.47;;;5.00;;
6007;SDS011;3032;49.484;11.112;2023-06-22T14:46:02;9.87;;;4.90;;
6007;SDS011;3032;49.484;11.112;2023-06-22T14:48:28;7.73;;;4.90;;
6007;SDS011;3032;49.484;11.112;2023-06-22T14:50:54;8.57;;;5.03;;
6007;SDS011;3032;49.484;11.112;2023-06-22T14:53:19;10.70;;;5.23;;
6007;SDS011;3032;49.484;11.112;2023-06-22T14:55:45;7.77;;;5.03;;
6007;SDS011;3032;49.484;11.112;2023-06-22T14:58:11;9.30;;;4.97;;